AXM822 WMKK-VTSP
Flight info
| Callsign | AXM822 |
|---|---|
| Flight time | N/A |
| Altitude | 36000 |
| Route | BIKDU3C BIKDU Y501 RINBA Y502 DUBAX R325 URGAD URGAD1D |
| Aircraft | A320/M-SDE3FGHIRWY/LB1 |
Departure
| Time | N/A |
|---|---|
| Airport | Kuala Lumpur International Airport (WMKK) |
Arrival
| Time | 2026-05-08 11:43 |
|---|---|
| Airport | Phuket International Airport (VTSP) |
| Time | Latitude | Longitude | Altitude | Speed | Heading |
|---|---|---|---|---|---|
| 2026-05-08 10:40 | 3.20678 | 102.09720 | 25588 ft | 423 kts | 315° |
| 2026-05-08 10:40 | 3.22715 | 102.07549 | 25706 ft | 433 kts | 315° |
| 2026-05-08 10:40 | 3.24803 | 102.05331 | 25824 ft | 441 kts | 315° |
| 2026-05-08 10:40 | 3.26925 | 102.03081 | 25978 ft | 448 kts | 315° |
| 2026-05-08 10:41 | 3.29073 | 102.00798 | 26230 ft | 452 kts | 315° |
| 2026-05-08 10:41 | 3.31234 | 101.98498 | 26497 ft | 454 kts | 315° |
| 2026-05-08 10:41 | 3.33399 | 101.96191 | 26768 ft | 456 kts | 315° |
| 2026-05-08 10:41 | 3.35575 | 101.93872 | 27045 ft | 458 kts | 315° |
| 2026-05-08 10:42 | 3.37760 | 101.91544 | 27311 ft | 460 kts | 315° |
| 2026-05-08 10:42 | 3.39960 | 101.89205 | 27581 ft | 462 kts | 315° |
| 2026-05-08 10:42 | 3.42167 | 101.86855 | 27845 ft | 464 kts | 315° |
| 2026-05-08 10:42 | 3.44392 | 101.84485 | 28106 ft | 466 kts | 315° |
| 2026-05-08 10:43 | 3.46622 | 101.82110 | 28364 ft | 468 kts | 315° |
| 2026-05-08 10:43 | 3.48834 | 101.79755 | 28616 ft | 470 kts | 315° |
| 2026-05-08 10:43 | 3.51080 | 101.77363 | 28870 ft | 472 kts | 315° |
| 2026-05-08 10:43 | 3.53330 | 101.74966 | 29115 ft | 474 kts | 315° |
| 2026-05-08 10:44 | 3.55587 | 101.72558 | 29352 ft | 476 kts | 315° |
| 2026-05-08 10:44 | 3.57857 | 101.70138 | 29580 ft | 477 kts | 315° |
| 2026-05-08 10:44 | 3.60131 | 101.67713 | 29801 ft | 479 kts | 315° |
| 2026-05-08 10:44 | 3.62420 | 101.65273 | 30000 ft | 481 kts | 315° |
| 2026-05-08 10:45 | 3.64713 | 101.62832 | 30181 ft | 482 kts | 315° |
| 2026-05-08 10:45 | 3.67013 | 101.60385 | 30362 ft | 483 kts | 315° |
| 2026-05-08 10:45 | 3.69318 | 101.57934 | 30530 ft | 484 kts | 315° |
| 2026-05-08 10:45 | 3.71627 | 101.55475 | 30699 ft | 485 kts | 315° |
| 2026-05-08 10:46 | 3.73943 | 101.53007 | 30879 ft | 485 kts | 315° |
| 2026-05-08 10:46 | 3.76250 | 101.50547 | 31103 ft | 485 kts | 315° |
| 2026-05-08 10:46 | 3.78564 | 101.48082 | 31330 ft | 485 kts | 315° |
| 2026-05-08 10:46 | 3.80873 | 101.45623 | 31557 ft | 484 kts | 315° |
| 2026-05-08 10:47 | 3.83281 | 101.43285 | 31797 ft | 481 kts | 322° |
| 2026-05-08 10:47 | 3.85986 | 101.41349 | 32043 ft | 477 kts | 332° |
| 2026-05-08 10:47 | 3.88933 | 101.39854 | 32298 ft | 474 kts | 338° |
| 2026-05-08 10:47 | 3.91948 | 101.38522 | 32556 ft | 473 kts | 338° |
| 2026-05-08 10:48 | 3.94956 | 101.37184 | 32815 ft | 472 kts | 338° |
| 2026-05-08 10:48 | 3.97953 | 101.35847 | 33070 ft | 471 kts | 338° |
| 2026-05-08 10:48 | 4.00944 | 101.34510 | 33326 ft | 470 kts | 338° |
| 2026-05-08 10:48 | 4.03931 | 101.33178 | 33593 ft | 469 kts | 338° |
| 2026-05-08 10:49 | 4.06871 | 101.31869 | 33854 ft | 468 kts | 338° |
| 2026-05-08 10:49 | 4.09885 | 101.30526 | 34081 ft | 467 kts | 338° |
| 2026-05-08 10:49 | 4.12820 | 101.29221 | 34292 ft | 467 kts | 338° |
| 2026-05-08 10:49 | 4.15795 | 101.27900 | 34496 ft | 467 kts | 338° |
| 2026-05-08 10:50 | 4.18764 | 101.26581 | 34696 ft | 466 kts | 338° |
| 2026-05-08 10:50 | 4.21728 | 101.25264 | 34903 ft | 466 kts | 338° |
| 2026-05-08 10:50 | 4.24694 | 101.23945 | 35111 ft | 465 kts | 338° |
| 2026-05-08 10:50 | 4.27647 | 101.22632 | 35303 ft | 465 kts | 338° |
| 2026-05-08 10:51 | 4.30603 | 101.21317 | 35479 ft | 464 kts | 338° |
| 2026-05-08 10:51 | 4.33552 | 101.20002 | 35668 ft | 464 kts | 338° |
| 2026-05-08 10:51 | 4.36498 | 101.18689 | 35796 ft | 464 kts | 338° |
| 2026-05-08 10:52 | 4.42384 | 101.16064 | 35822 ft | 462 kts | 338° |
| 2026-05-08 10:52 | 4.48252 | 101.13451 | 35813 ft | 461 kts | 338° |
| 2026-05-08 10:53 | 4.54082 | 101.10852 | 35810 ft | 461 kts | 338° |
| 2026-05-08 10:53 | 4.59905 | 101.08270 | 35810 ft | 461 kts | 338° |
| 2026-05-08 10:54 | 4.65808 | 101.05725 | 35812 ft | 461 kts | 339° |
| 2026-05-08 10:54 | 4.71708 | 101.03202 | 35824 ft | 461 kts | 339° |
| 2026-05-08 10:55 | 4.77604 | 101.00670 | 35833 ft | 461 kts | 339° |
| 2026-05-08 10:55 | 4.83501 | 100.98126 | 35845 ft | 462 kts | 339° |
| 2026-05-08 10:56 | 4.89406 | 100.95584 | 35853 ft | 461 kts | 339° |
| 2026-05-08 10:56 | 4.95307 | 100.93037 | 35849 ft | 462 kts | 338° |
| 2026-05-08 10:57 | 5.01218 | 100.90480 | 35850 ft | 462 kts | 338° |
| 2026-05-08 10:57 | 5.10034 | 100.86666 | 35841 ft | 462 kts | 338° |
| 2026-05-08 10:58 | 5.15940 | 100.84112 | 35840 ft | 462 kts | 339° |
| 2026-05-08 10:58 | 5.21855 | 100.81554 | 35841 ft | 462 kts | 339° |
| 2026-05-08 10:59 | 5.27769 | 100.79003 | 35831 ft | 462 kts | 338° |
| 2026-05-08 10:59 | 5.33670 | 100.76453 | 35831 ft | 462 kts | 338° |
| 2026-05-08 11:00 | 5.39470 | 100.73638 | 35822 ft | 464 kts | 332° |
| 2026-05-08 11:00 | 5.45096 | 100.70457 | 35799 ft | 464 kts | 332° |
| 2026-05-08 11:01 | 5.50692 | 100.67292 | 35797 ft | 465 kts | 332° |
| 2026-05-08 11:01 | 5.56328 | 100.64106 | 35796 ft | 465 kts | 332° |
| 2026-05-08 11:02 | 5.64788 | 100.59313 | 35817 ft | 466 kts | 332° |
| 2026-05-08 11:03 | 5.70430 | 100.56121 | 35833 ft | 465 kts | 332° |
| 2026-05-08 11:03 | 5.76074 | 100.52936 | 35835 ft | 465 kts | 332° |
| 2026-05-08 11:04 | 5.81696 | 100.49724 | 35839 ft | 465 kts | 331° |
| 2026-05-08 11:04 | 5.87234 | 100.46382 | 35843 ft | 464 kts | 330° |
| 2026-05-08 11:05 | 5.92751 | 100.43008 | 35838 ft | 464 kts | 330° |
| 2026-05-08 11:05 | 5.98275 | 100.39669 | 35833 ft | 463 kts | 330° |
| 2026-05-08 11:06 | 6.03817 | 100.36355 | 35831 ft | 463 kts | 330° |
| 2026-05-08 11:06 | 6.09315 | 100.33064 | 35829 ft | 463 kts | 330° |
| 2026-05-08 11:07 | 6.14838 | 100.29746 | 35838 ft | 463 kts | 330° |
| 2026-05-08 11:07 | 6.20356 | 100.26428 | 35839 ft | 462 kts | 330° |
| 2026-05-08 11:08 | 6.25878 | 100.23111 | 35838 ft | 462 kts | 330° |
| 2026-05-08 11:08 | 6.31399 | 100.19792 | 35833 ft | 462 kts | 330° |
| 2026-05-08 11:09 | 6.36918 | 100.16476 | 35831 ft | 462 kts | 330° |
| 2026-05-08 11:09 | 6.42376 | 100.13080 | 35831 ft | 462 kts | 324° |
| 2026-05-08 11:10 | 6.46961 | 100.08549 | 35831 ft | 464 kts | 313° |
| 2026-05-08 11:10 | 6.51306 | 100.03739 | 35828 ft | 464 kts | 313° |
| 2026-05-08 11:11 | 6.53354 | 100.01486 | 35827 ft | 464 kts | 314° |
| 2026-05-08 11:11 | 6.57602 | 99.96810 | 35834 ft | 464 kts | 314° |
| 2026-05-08 11:12 | 6.61955 | 99.92009 | 35833 ft | 464 kts | 313° |
| 2026-05-08 11:12 | 6.66305 | 99.87204 | 35838 ft | 465 kts | 313° |
| 2026-05-08 11:13 | 6.70656 | 99.82390 | 35842 ft | 465 kts | 313° |
| 2026-05-08 11:13 | 6.75014 | 99.77569 | 35827 ft | 465 kts | 313° |
| 2026-05-08 11:14 | 6.79349 | 99.72779 | 35824 ft | 466 kts | 313° |
| 2026-05-08 11:14 | 6.83716 | 99.67953 | 35826 ft | 466 kts | 313° |
| 2026-05-08 11:15 | 6.88085 | 99.63119 | 35823 ft | 467 kts | 313° |
| 2026-05-08 11:15 | 6.92455 | 99.58279 | 35819 ft | 468 kts | 313° |
| 2026-05-08 11:16 | 6.96825 | 99.53443 | 35826 ft | 468 kts | 313° |
| 2026-05-08 11:16 | 7.01219 | 99.48589 | 35829 ft | 468 kts | 314° |
| 2026-05-08 11:17 | 7.05684 | 99.43791 | 35835 ft | 469 kts | 314° |
| 2026-05-08 11:17 | 7.10156 | 99.39084 | 35844 ft | 469 kts | 315° |
| 2026-05-08 11:18 | 7.14656 | 99.34325 | 35852 ft | 469 kts | 314° |
| 2026-05-08 11:18 | 7.19137 | 99.29541 | 35850 ft | 469 kts | 314° |
| 2026-05-08 11:18 | 7.21375 | 99.27141 | 35555 ft | 469 kts | 314° |
| 2026-05-08 11:19 | 7.23615 | 99.24738 | 34209 ft | 474 kts | 314° |
| 2026-05-08 11:19 | 7.25894 | 99.22298 | 32439 ft | 483 kts | 314° |
| 2026-05-08 11:19 | 7.28211 | 99.19823 | 31049 ft | 484 kts | 314° |
| 2026-05-08 11:19 | 7.30514 | 99.17366 | 29866 ft | 480 kts | 314° |
| 2026-05-08 11:20 | 7.32793 | 99.14935 | 28612 ft | 474 kts | 314° |
| 2026-05-08 11:20 | 7.35039 | 99.12542 | 27476 ft | 466 kts | 314° |
| 2026-05-08 11:20 | 7.37249 | 99.10188 | 26415 ft | 459 kts | 314° |
| 2026-05-08 11:20 | 7.39421 | 99.07872 | 25398 ft | 452 kts | 314° |
| 2026-05-08 11:21 | 7.41568 | 99.05577 | 24407 ft | 446 kts | 314° |
| 2026-05-08 11:21 | 7.42967 | 99.04081 | 23782 ft | 442 kts | 314° |
| 2026-05-08 11:21 | 7.45062 | 99.01840 | 22750 ft | 436 kts | 314° |
| 2026-05-08 11:21 | 7.47133 | 98.99629 | 21728 ft | 430 kts | 314° |
| 2026-05-08 11:22 | 7.49171 | 98.97453 | 20776 ft | 424 kts | 314° |
| 2026-05-08 11:22 | 7.51172 | 98.95311 | 19872 ft | 418 kts | 314° |
| 2026-05-08 11:22 | 7.53151 | 98.93190 | 19004 ft | 411 kts | 314° |
| 2026-05-08 11:22 | 7.55096 | 98.91103 | 18140 ft | 406 kts | 314° |
| 2026-05-08 11:23 | 7.57632 | 98.88386 | 16875 ft | 398 kts | 314° |
| 2026-05-08 11:23 | 7.58907 | 98.87021 | 16260 ft | 394 kts | 314° |
| 2026-05-08 11:23 | 7.60778 | 98.85022 | 15375 ft | 388 kts | 314° |
| 2026-05-08 11:23 | 7.62615 | 98.83059 | 14520 ft | 383 kts | 314° |
| 2026-05-08 11:24 | 7.64432 | 98.81121 | 13685 ft | 377 kts | 314° |
| 2026-05-08 11:24 | 7.66221 | 98.79209 | 12751 ft | 372 kts | 314° |
| 2026-05-08 11:24 | 7.67986 | 98.77321 | 11843 ft | 367 kts | 314° |
| 2026-05-08 11:24 | 7.69723 | 98.75460 | 11005 ft | 361 kts | 314° |
| 2026-05-08 11:25 | 7.71385 | 98.73677 | 10690 ft | 340 kts | 314° |
| 2026-05-08 11:25 | 7.72996 | 98.71949 | 10334 ft | 334 kts | 314° |
| 2026-05-08 11:25 | 7.74528 | 98.70296 | 10109 ft | 313 kts | 314° |
| 2026-05-08 11:25 | 7.75209 | 98.69560 | 9925 ft | 308 kts | 314° |
| 2026-05-08 11:26 | 7.75701 | 98.69004 | 9878 ft | 304 kts | 310° |
| 2026-05-08 11:26 | 7.76837 | 98.67212 | 9755 ft | 305 kts | 295° |
| 2026-05-08 11:26 | 7.77480 | 98.65202 | 9640 ft | 305 kts | 280° |
| 2026-05-08 11:26 | 7.77826 | 98.63067 | 9504 ft | 305 kts | 279° |
| 2026-05-08 11:27 | 7.78168 | 98.60959 | 9384 ft | 304 kts | 279° |
| 2026-05-08 11:27 | 7.78512 | 98.58858 | 9315 ft | 304 kts | 279° |
| 2026-05-08 11:27 | 7.78860 | 98.56755 | 9186 ft | 304 kts | 279° |
| 2026-05-08 11:27 | 7.79208 | 98.54650 | 9031 ft | 304 kts | 279° |
| 2026-05-08 11:28 | 7.79555 | 98.52553 | 8869 ft | 303 kts | 279° |
| 2026-05-08 11:28 | 7.79897 | 98.50495 | 8708 ft | 301 kts | 279° |
| 2026-05-08 11:28 | 7.80260 | 98.48419 | 8549 ft | 300 kts | 284° |
| 2026-05-08 11:28 | 7.80977 | 98.46454 | 8394 ft | 299 kts | 298° |
| 2026-05-08 11:29 | 7.81946 | 98.44597 | 8230 ft | 299 kts | 298° |
| 2026-05-08 11:29 | 7.82908 | 98.42754 | 8069 ft | 298 kts | 298° |
| 2026-05-08 11:29 | 7.83867 | 98.40909 | 7909 ft | 297 kts | 298° |
| 2026-05-08 11:29 | 7.84828 | 98.39061 | 7745 ft | 296 kts | 298° |
| 2026-05-08 11:30 | 7.85782 | 98.37226 | 7589 ft | 296 kts | 298° |
| 2026-05-08 11:30 | 7.86741 | 98.35388 | 7424 ft | 295 kts | 298° |
| 2026-05-08 11:30 | 7.87694 | 98.33558 | 7270 ft | 295 kts | 298° |
| 2026-05-08 11:30 | 7.88645 | 98.31731 | 7120 ft | 293 kts | 298° |
| 2026-05-08 11:31 | 7.89587 | 98.29918 | 6964 ft | 292 kts | 298° |
| 2026-05-08 11:31 | 7.90532 | 98.28103 | 6800 ft | 291 kts | 298° |
| 2026-05-08 11:31 | 7.91473 | 98.26295 | 6647 ft | 291 kts | 298° |
| 2026-05-08 11:31 | 7.92410 | 98.24488 | 6487 ft | 290 kts | 298° |
| 2026-05-08 11:32 | 7.93343 | 98.22688 | 6339 ft | 289 kts | 298° |
| 2026-05-08 11:32 | 7.94275 | 98.20890 | 6176 ft | 289 kts | 298° |
| 2026-05-08 11:32 | 7.95205 | 98.19097 | 6024 ft | 288 kts | 298° |
| 2026-05-08 11:32 | 7.96130 | 98.17309 | 5854 ft | 287 kts | 298° |
| 2026-05-08 11:33 | 7.97054 | 98.15520 | 5719 ft | 286 kts | 298° |
| 2026-05-08 11:33 | 7.97974 | 98.13741 | 5562 ft | 286 kts | 298° |
| 2026-05-08 11:33 | 7.98794 | 98.11926 | 5414 ft | 285 kts | 287° |
| 2026-05-08 11:33 | 7.99127 | 98.09967 | 5258 ft | 284 kts | 270° |
| 2026-05-08 11:34 | 7.98995 | 98.07982 | 5090 ft | 282 kts | 264° |
| 2026-05-08 11:34 | 7.98826 | 98.06076 | 4806 ft | 266 kts | 269° |
| 2026-05-08 11:34 | 7.99201 | 98.04321 | 4530 ft | 254 kts | 300° |
| 2026-05-08 11:34 | 8.00389 | 98.03017 | 4407 ft | 255 kts | 330° |
| 2026-05-08 11:35 | 8.02052 | 98.02491 | 4292 ft | 252 kts | 356° |
| 2026-05-08 11:35 | 8.03770 | 98.02332 | 4166 ft | 245 kts | 356° |
| 2026-05-08 11:35 | 8.05401 | 98.02178 | 4035 ft | 226 kts | 356° |
| 2026-05-08 11:35 | 8.06904 | 98.02166 | 3909 ft | 207 kts | 17° |
| 2026-05-08 11:36 | 8.08087 | 98.02841 | 4037 ft | 185 kts | 48° |
| 2026-05-08 11:36 | 8.08692 | 98.03923 | 3848 ft | 174 kts | 78° |
| 2026-05-08 11:36 | 8.08819 | 98.05096 | 3691 ft | 163 kts | 85° |
| 2026-05-08 11:36 | 8.08925 | 98.06203 | 3543 ft | 154 kts | 85° |
| 2026-05-08 11:37 | 8.09028 | 98.07245 | 3405 ft | 146 kts | 85° |
| 2026-05-08 11:37 | 8.09128 | 98.08263 | 3281 ft | 145 kts | 85° |
| 2026-05-08 11:37 | 8.09225 | 98.09263 | 3165 ft | 142 kts | 85° |
| 2026-05-08 11:37 | 8.09320 | 98.10250 | 3046 ft | 141 kts | 85° |
| 2026-05-08 11:38 | 8.09413 | 98.11235 | 2930 ft | 141 kts | 85° |
| 2026-05-08 11:38 | 8.09505 | 98.12228 | 2817 ft | 143 kts | 85° |
| 2026-05-08 11:38 | 8.09598 | 98.13228 | 2708 ft | 143 kts | 85° |
| 2026-05-08 11:38 | 8.09691 | 98.14225 | 2596 ft | 143 kts | 85° |
| 2026-05-08 11:39 | 8.09784 | 98.15223 | 2482 ft | 143 kts | 85° |
| 2026-05-08 11:39 | 8.09876 | 98.16223 | 2370 ft | 143 kts | 85° |
| 2026-05-08 11:39 | 8.09968 | 98.17229 | 2253 ft | 144 kts | 85° |
| 2026-05-08 11:39 | 8.10060 | 98.18238 | 2137 ft | 144 kts | 85° |
| 2026-05-08 11:40 | 8.10152 | 98.19245 | 2025 ft | 144 kts | 85° |
| 2026-05-08 11:40 | 8.10245 | 98.20257 | 1910 ft | 145 kts | 85° |
| 2026-05-08 11:40 | 8.10339 | 98.21270 | 1797 ft | 145 kts | 84° |
| 2026-05-08 11:40 | 8.10434 | 98.22286 | 1667 ft | 146 kts | 84° |
| 2026-05-08 11:41 | 8.10531 | 98.23305 | 1457 ft | 145 kts | 84° |
| 2026-05-08 11:41 | 8.10628 | 98.24322 | 1261 ft | 145 kts | 84° |
| 2026-05-08 11:41 | 8.10723 | 98.25334 | 1069 ft | 146 kts | 84° |
| 2026-05-08 11:41 | 8.10818 | 98.26347 | 886 ft | 145 kts | 84° |
| 2026-05-08 11:42 | 8.10913 | 98.27359 | 699 ft | 144 kts | 83° |
| 2026-05-08 11:42 | 8.11004 | 98.28362 | 466 ft | 143 kts | 84° |
| 2026-05-08 11:42 | 8.11106 | 98.29357 | 289 ft | 142 kts | 83° |
| 2026-05-08 11:42 | 8.11197 | 98.30344 | 70 ft | 141 kts | 83° |
| 2026-05-08 11:43 | 8.11285 | 98.31261 | 31 ft | 113 kts | 85° |
| 2026-05-08 11:43 | 8.11342 | 98.31871 | 53 ft | 63 kts | 85° |
| 2026-05-08 11:43 | 8.11369 | 98.32174 | 67 ft | 35 kts | 84° |
| 2026-05-08 11:43 | 8.11344 | 98.32370 | 72 ft | 18 kts | 112° |
| 2026-05-08 11:44 | 8.11300 | 98.32434 | 75 ft | 9 kts | 157° |
| 2026-05-08 11:44 | 8.11254 | 98.32406 | 72 ft | 9 kts | 250° |
| 2026-05-08 11:44 | 8.11246 | 98.32338 | 71 ft | 10 kts | 266° |
| 2026-05-08 11:44 | 8.11239 | 98.32259 | 71 ft | 13 kts | 265° |
| 2026-05-08 11:45 | 8.11227 | 98.32129 | 65 ft | 23 kts | 264° |
| 2026-05-08 11:45 | 8.11211 | 98.31947 | 56 ft | 28 kts | 265° |
| 2026-05-08 11:45 | 8.11204 | 98.31862 | 51 ft | 30 kts | 266° |
| 2026-05-08 11:45 | 8.11204 | 98.31856 | 53 ft | 31 kts | 266° |
| 2026-05-08 11:46 | 8.11180 | 98.31631 | 43 ft | 31 kts | 265° |
| 2026-05-08 11:46 | 8.11161 | 98.31427 | 36 ft | 30 kts | 265° |
| 2026-05-08 11:46 | 8.11142 | 98.31216 | 31 ft | 28 kts | 265° |
| 2026-05-08 11:46 | 8.11129 | 98.31070 | 30 ft | 18 kts | 264° |
| 2026-05-08 11:47 | 8.11097 | 98.30944 | 29 ft | 20 kts | 242° |
| 2026-05-08 11:47 | 8.11075 | 98.30803 | 29 ft | 21 kts | 266° |
| 2026-05-08 11:47 | 8.11062 | 98.30662 | 28 ft | 20 kts | 265° |
| 2026-05-08 11:47 | 8.11051 | 98.30535 | 27 ft | 17 kts | 264° |
| 2026-05-08 11:48 | 8.10972 | 98.30473 | 27 ft | 15 kts | 194° |
| 2026-05-08 11:48 | 8.10876 | 98.30449 | 27 ft | 14 kts | 195° |
| 2026-05-08 11:48 | 8.10785 | 98.30425 | 27 ft | 13 kts | 195° |
| 2026-05-08 11:48 | 8.10731 | 98.30433 | 27 ft | 6 kts | 110° |
| 2026-05-08 11:49 | 8.10723 | 98.30471 | 27 ft | 5 kts | 104° |
| 2026-05-08 11:49 | 8.10715 | 98.30499 | 27 ft | 2 kts | 105° |
| 2026-05-08 11:49 | 8.10714 | 98.30503 | 27 ft | 0 kts | 105° |